sensor_id;sensor_type;location;lat;lon;timestamp;P1;durP1;ratioP1;P2;durP2;ratioP2
23370;SDS011;11858;51.056;3.712;2023-02-01T00:01:44;26.00;;;7.00;;
23370;SDS011;11858;51.056;3.712;2023-02-01T00:04:10;29.85;;;7.15;;
23370;SDS011;11858;51.056;3.712;2023-02-01T00:06:36;30.95;;;7.53;;
23370;SDS011;11858;51.056;3.712;2023-02-01T00:09:02;27.50;;;6.30;;
23370;SDS011;11858;51.056;3.712;2023-02-01T00:11:28;35.25;;;6.80;;
23370;SDS011;11858;51.056;3.712;2023-02-01T00:13:54;24.95;;;6.25;;
23370;SDS011;11858;51.056;3.712;2023-02-01T00:16:21;30.08;;;6.72;;
23370;SDS011;11858;51.056;3.712;2023-02-01T00:18:49;29.55;;;6.22;;
23370;SDS011;11858;51.056;3.712;2023-02-01T00:21:17;34.78;;;6.22;;
23370;SDS011;11858;51.056;3.712;2023-02-01T00:23:45;26.75;;;5.88;;
23370;SDS011;11858;51.056;3.712;2023-02-01T00:26:15;35.65;;;6.60;;
23370;SDS011;11858;51.056;3.712;2023-02-01T00:28:46;26.33;;;6.47;;
23370;SDS011;11858;51.056;3.712;2023-02-01T00:31:11;32.67;;;6.03;;
23370;SDS011;11858;51.056;3.712;2023-02-01T00:33:37;32.22;;;6.40;;
23370;SDS011;11858;51.056;3.712;2023-02-01T00:36:04;21.88;;;5.35;;
23370;SDS011;11858;51.056;3.712;2023-02-01T00:38:32;22.15;;;5.75;;
23370;SDS011;11858;51.056;3.712;2023-02-01T00:41:02;30.95;;;6.35;;
23370;SDS011;11858;51.056;3.712;2023-02-01T00:43:33;31.92;;;6.45;;
23370;SDS011;11858;51.056;3.712;2023-02-01T00:45:59;37.17;;;6.78;;
23370;SDS011;11858;51.056;3.712;2023-02-01T00:48:25;34.58;;;6.72;;
23370;SDS011;11858;51.056;3.712;2023-02-01T00:50:51;27.33;;;6.32;;
23370;SDS011;11858;51.056;3.712;2023-02-01T00:53:17;27.73;;;5.72;;
23370;SDS011;11858;51.056;3.712;2023-02-01T00:55:46;28.65;;;6.40;;
23370;SDS011;11858;51.056;3.712;2023-02-01T00:58:12;32.03;;;6.25;;
23370;SDS011;11858;51.056;3.712;2023-02-01T01:00:38;24.13;;;5.18;;
23370;SDS011;11858;51.056;3.712;2023-02-01T01:03:03;24.13;;;5.15;;
23370;SDS011;11858;51.056;3.712;2023-02-01T01:05:45;28.48;;;6.10;;
23370;SDS011;11858;51.056;3.712;2023-02-01T01:08:12;27.10;;;5.50;;
23370;SDS011;11858;51.056;3.712;2023-02-01T01:10:39;30.20;;;5.93;;
23370;SDS011;11858;51.056;3.712;2023-02-01T01:13:05;23.25;;;5.03;;
23370;SDS011;11858;51.056;3.712;2023-02-01T01:15:35;32.80;;;5.28;;
23370;SDS011;11858;51.056;3.712;2023-02-01T01:18:04;23.58;;;5.82;;
23370;SDS011;11858;51.056;3.712;2023-02-01T01:20:31;27.17;;;5.30;;
23370;SDS011;11858;51.056;3.712;2023-02-01T01:23:00;32.10;;;5.28;;
23370;SDS011;11858;51.056;3.712;2023-02-01T01:25:26;32.35;;;5.57;;
23370;SDS011;11858;51.056;3.712;2023-02-01T01:27:52;27.65;;;6.28;;
23370;SDS011;11858;51.056;3.712;2023-02-01T01:30:18;25.90;;;5.50;;
23370;SDS011;11858;51.056;3.712;2023-02-01T01:32:43;30.35;;;5.47;;
23370;SDS011;11858;51.056;3.712;2023-02-01T01:35:10;30.65;;;5.93;;
23370;SDS011;11858;51.056;3.712;2023-02-01T01:37:36;28.67;;;5.55;;
23370;SDS011;11858;51.056;3.712;2023-02-01T01:40:03;26.50;;;5.47;;
23370;SDS011;11858;51.056;3.712;2023-02-01T01:42:29;32.03;;;5.85;;
23370;SDS011;11858;51.056;3.712;2023-02-01T01:47:26;26.13;;;5.65;;
23370;SDS011;11858;51.056;3.712;2023-02-01T01:49:59;27.00;;;5.18;;
23370;SDS011;11858;51.056;3.712;2023-02-01T01:52:27;18.63;;;5.05;;
23370;SDS011;11858;51.056;3.712;2023-02-01T01:54:53;23.67;;;5.18;;
23370;SDS011;11858;51.056;3.712;2023-02-01T01:57:24;30.08;;;5.32;;
23370;SDS011;11858;51.056;3.712;2023-02-01T02:00:04;31.45;;;5.82;;
23370;SDS011;11858;51.056;3.712;2023-02-01T02:02:33;24.17;;;5.68;;
23370;SDS011;11858;51.056;3.712;2023-02-01T02:04:59;19.83;;;5.65;;
23370;SDS011;11858;51.056;3.712;2023-02-01T02:07:30;32.65;;;5.72;;
23370;SDS011;11858;51.056;3.712;2023-02-01T02:09:58;21.35;;;5.38;;
23370;SDS011;11858;51.056;3.712;2023-02-01T02:12:25;28.10;;;5.75;;
23370;SDS011;11858;51.056;3.712;2023-02-01T02:14:50;31.95;;;6.15;;
23370;SDS011;11858;51.056;3.712;2023-02-01T02:20:08;28.85;;;6.07;;
23370;SDS011;11858;51.056;3.712;2023-02-01T02:45:13;38.78;;;6.05;;
23370;SDS011;11858;51.056;3.712;2023-02-01T02:48:21;36.35;;;6.10;;
23370;SDS011;11858;51.056;3.712;2023-02-01T02:51:09;30.23;;;4.97;;
23370;SDS011;11858;51.056;3.712;2023-02-01T02:53:57;29.40;;;5.77;;
23370;SDS011;11858;51.056;3.712;2023-02-01T02:56:57;26.23;;;6.05;;
23370;SDS011;11858;51.056;3.712;2023-02-01T02:59:45;31.63;;;5.45;;
23370;SDS011;11858;51.056;3.712;2023-02-01T03:02:30;34.72;;;6.20;;
23370;SDS011;11858;51.056;3.712;2023-02-01T03:05:16;33.38;;;5.88;;
23370;SDS011;11858;51.056;3.712;2023-02-01T03:10:16;28.95;;;5.22;;
23370;SDS011;11858;51.056;3.712;2023-02-01T03:12:49;27.17;;;5.53;;
23370;SDS011;11858;51.056;3.712;2023-02-01T03:15:20;27.95;;;5.70;;
23370;SDS011;11858;51.056;3.712;2023-02-01T03:18:06;29.83;;;5.38;;
23370;SDS011;11858;51.056;3.712;2023-02-01T03:20:42;34.65;;;6.07;;
23370;SDS011;11858;51.056;3.712;2023-02-01T03:23:11;33.90;;;5.20;;
23370;SDS011;11858;51.056;3.712;2023-02-01T03:25:41;34.80;;;5.90;;
23370;SDS011;11858;51.056;3.712;2023-02-01T03:28:08;26.17;;;5.28;;
23370;SDS011;11858;51.056;3.712;2023-02-01T03:30:39;28.23;;;5.32;;
23370;SDS011;11858;51.056;3.712;2023-02-01T03:33:08;30.75;;;5.88;;
23370;SDS011;11858;51.056;3.712;2023-02-01T03:41:33;36.30;;;5.85;;
23370;SDS011;11858;51.056;3.712;2023-02-01T03:46:33;32.15;;;5.50;;
23370;SDS011;11858;51.056;3.712;2023-02-01T03:49:09;32.38;;;5.18;;
23370;SDS011;11858;51.056;3.712;2023-02-01T03:51:40;30.77;;;5.40;;
23370;SDS011;11858;51.056;3.712;2023-02-01T03:54:06;26.73;;;5.35;;
23370;SDS011;11858;51.056;3.712;2023-02-01T03:56:37;33.42;;;6.65;;
23370;SDS011;11858;51.056;3.712;2023-02-01T03:59:04;27.88;;;5.13;;
23370;SDS011;11858;51.056;3.712;2023-02-01T04:01:30;33.65;;;5.95;;
23370;SDS011;11858;51.056;3.712;2023-02-01T04:03:57;38.00;;;6.10;;
23370;SDS011;11858;51.056;3.712;2023-02-01T04:06:23;31.00;;;5.88;;
23370;SDS011;11858;51.056;3.712;2023-02-01T04:08:50;31.17;;;5.35;;
23370;SDS011;11858;51.056;3.712;2023-02-01T04:11:16;28.20;;;5.60;;
23370;SDS011;11858;51.056;3.712;2023-02-01T04:13:42;31.08;;;5.60;;
23370;SDS011;11858;51.056;3.712;2023-02-01T04:16:08;30.13;;;6.43;;
23370;SDS011;11858;51.056;3.712;2023-02-01T04:18:34;38.78;;;5.88;;
23370;SDS011;11858;51.056;3.712;2023-02-01T04:21:00;33.38;;;6.32;;
23370;SDS011;11858;51.056;3.712;2023-02-01T04:23:27;24.73;;;5.30;;
23370;SDS011;11858;51.056;3.712;2023-02-01T04:25:53;28.95;;;5.63;;
23370;SDS011;11858;51.056;3.712;2023-02-01T04:28:24;31.70;;;5.50;;
23370;SDS011;11858;51.056;3.712;2023-02-01T04:30:49;36.75;;;6.18;;
23370;SDS011;11858;51.056;3.712;2023-02-01T04:33:15;30.33;;;5.40;;
23370;SDS011;11858;51.056;3.712;2023-02-01T04:35:41;38.13;;;6.28;;
23370;SDS011;11858;51.056;3.712;2023-02-01T04:38:07;38.13;;;6.45;;
23370;SDS011;11858;51.056;3.712;2023-02-01T04:40:33;30.73;;;5.43;;
23370;SDS011;11858;51.056;3.712;2023-02-01T04:43:00;26.95;;;5.72;;
23370;SDS011;11858;51.056;3.712;2023-02-01T04:45:26;29.00;;;5.65;;
23370;SDS011;11858;51.056;3.712;2023-02-01T04:47:52;28.48;;;5.53;;
23370;SDS011;11858;51.056;3.712;2023-02-01T04:50:17;40.15;;;5.97;;
23370;SDS011;11858;51.056;3.712;2023-02-01T04:52:43;27.77;;;5.32;;
23370;SDS011;11858;51.056;3.712;2023-02-01T04:55:10;36.15;;;5.85;;
23370;SDS011;11858;51.056;3.712;2023-02-01T04:57:36;38.22;;;5.70;;
23370;SDS011;11858;51.056;3.712;2023-02-01T05:00:04;39.92;;;5.60;;
23370;SDS011;11858;51.056;3.712;2023-02-01T05:02:30;27.88;;;5.00;;
23370;SDS011;11858;51.056;3.712;2023-02-01T05:04:57;31.88;;;5.10;;
23370;SDS011;11858;51.056;3.712;2023-02-01T05:07:23;36.97;;;6.03;;
23370;SDS011;11858;51.056;3.712;2023-02-01T05:09:49;34.75;;;5.60;;
23370;SDS011;11858;51.056;3.712;2023-02-01T05:12:15;30.02;;;5.30;;
23370;SDS011;11858;51.056;3.712;2023-02-01T05:14:59;39.60;;;5.57;;
23370;SDS011;11858;51.056;3.712;2023-02-01T05:17:25;33.40;;;5.72;;
23370;SDS011;11858;51.056;3.712;2023-02-01T05:19:50;30.45;;;6.10;;
23370;SDS011;11858;51.056;3.712;2023-02-01T05:22:16;27.83;;;5.47;;
23370;SDS011;11858;51.056;3.712;2023-02-01T05:24:42;34.25;;;5.78;;
23370;SDS011;11858;51.056;3.712;2023-02-01T05:27:08;32.58;;;5.32;;
23370;SDS011;11858;51.056;3.712;2023-02-01T05:29:34;29.63;;;5.07;;
23370;SDS011;11858;51.056;3.712;2023-02-01T05:32:00;36.60;;;5.13;;
23370;SDS011;11858;51.056;3.712;2023-02-01T05:34:26;31.63;;;5.85;;
23370;SDS011;11858;51.056;3.712;2023-02-01T05:36:51;21.08;;;4.88;;
23370;SDS011;11858;51.056;3.712;2023-02-01T05:39:17;28.92;;;4.72;;
23370;SDS011;11858;51.056;3.712;2023-02-01T05:41:44;45.17;;;6.13;;
23370;SDS011;11858;51.056;3.712;2023-02-01T05:44:10;31.55;;;5.60;;
23370;SDS011;11858;51.056;3.712;2023-02-01T05:46:36;34.65;;;5.22;;
23370;SDS011;11858;51.056;3.712;2023-02-01T05:49:03;34.03;;;5.65;;
23370;SDS011;11858;51.056;3.712;2023-02-01T05:51:29;36.75;;;5.85;;
23370;SDS011;11858;51.056;3.712;2023-02-01T05:53:55;32.22;;;5.93;;
23370;SDS011;11858;51.056;3.712;2023-02-01T05:56:21;27.65;;;5.28;;
23370;SDS011;11858;51.056;3.712;2023-02-01T05:58:47;33.58;;;5.30;;
23370;SDS011;11858;51.056;3.712;2023-02-01T06:01:12;31.35;;;5.28;;
23370;SDS011;11858;51.056;3.712;2023-02-01T06:03:38;32.58;;;4.82;;
23370;SDS011;11858;51.056;3.712;2023-02-01T06:06:04;28.48;;;5.55;;
23370;SDS011;11858;51.056;3.712;2023-02-01T06:08:31;32.63;;;5.65;;
23370;SDS011;11858;51.056;3.712;2023-02-01T06:10:59;34.90;;;5.40;;
23370;SDS011;11858;51.056;3.712;2023-02-01T06:13:26;30.27;;;5.13;;
23370;SDS011;11858;51.056;3.712;2023-02-01T06:15:52;28.23;;;5.78;;
23370;SDS011;11858;51.056;3.712;2023-02-01T06:18:18;35.92;;;5.28;;
23370;SDS011;11858;51.056;3.712;2023-02-01T06:20:44;42.60;;;6.03;;
23370;SDS011;11858;51.056;3.712;2023-02-01T06:23:12;36.97;;;6.43;;
23370;SDS011;11858;51.056;3.712;2023-02-01T06:25:37;38.50;;;6.15;;
23370;SDS011;11858;51.056;3.712;2023-02-01T06:28:03;36.22;;;5.55;;
23370;SDS011;11858;51.056;3.712;2023-02-01T06:30:31;28.40;;;5.45;;
23370;SDS011;11858;51.056;3.712;2023-02-01T06:32:57;34.10;;;5.88;;
23370;SDS011;11858;51.056;3.712;2023-02-01T06:35:22;28.65;;;5.63;;
23370;SDS011;11858;51.056;3.712;2023-02-01T06:37:48;40.17;;;5.25;;
23370;SDS011;11858;51.056;3.712;2023-02-01T06:40:14;41.03;;;5.95;;
23370;SDS011;11858;51.056;3.712;2023-02-01T06:42:45;31.73;;;5.05;;
23370;SDS011;11858;51.056;3.712;2023-02-01T06:45:13;26.55;;;5.32;;
23370;SDS011;11858;51.056;3.712;2023-02-01T06:47:38;35.60;;;5.07;;
23370;SDS011;11858;51.056;3.712;2023-02-01T06:50:04;39.33;;;6.15;;
23370;SDS011;11858;51.056;3.712;2023-02-01T06:52:30;40.30;;;6.32;;
23370;SDS011;11858;51.056;3.712;2023-02-01T06:54:56;40.08;;;6.80;;
23370;SDS011;11858;51.056;3.712;2023-02-01T06:57:22;28.42;;;5.18;;
23370;SDS011;11858;51.056;3.712;2023-02-01T06:59:48;28.50;;;5.15;;
23370;SDS011;11858;51.056;3.712;2023-02-01T07:02:14;29.42;;;5.50;;
23370;SDS011;11858;51.056;3.712;2023-02-01T07:04:39;28.80;;;5.97;;
23370;SDS011;11858;51.056;3.712;2023-02-01T07:07:05;31.45;;;6.00;;
23370;SDS011;11858;51.056;3.712;2023-02-01T07:09:31;38.70;;;6.18;;
23370;SDS011;11858;51.056;3.712;2023-02-01T07:11:57;25.25;;;5.28;;
23370;SDS011;11858;51.056;3.712;2023-02-01T07:14:23;26.50;;;5.43;;
23370;SDS011;11858;51.056;3.712;2023-02-01T07:16:48;32.40;;;6.55;;
23370;SDS011;11858;51.056;3.712;2023-02-01T07:19:14;26.55;;;5.57;;
23370;SDS011;11858;51.056;3.712;2023-02-01T07:21:40;33.72;;;6.13;;
23370;SDS011;11858;51.056;3.712;2023-02-01T07:24:06;28.90;;;5.68;;
23370;SDS011;11858;51.056;3.712;2023-02-01T07:26:31;32.75;;;5.30;;
23370;SDS011;11858;51.056;3.712;2023-02-01T07:28:57;38.13;;;6.03;;
23370;SDS011;11858;51.056;3.712;2023-02-01T07:31:23;35.25;;;6.15;;
23370;SDS011;11858;51.056;3.712;2023-02-01T07:33:51;34.22;;;6.70;;
23370;SDS011;11858;51.056;3.712;2023-02-01T07:36:17;32.85;;;5.85;;
23370;SDS011;11858;51.056;3.712;2023-02-01T07:38:44;22.98;;;5.28;;
23370;SDS011;11858;51.056;3.712;2023-02-01T07:41:12;33.92;;;5.80;;
23370;SDS011;11858;51.056;3.712;2023-02-01T07:43:37;38.60;;;6.43;;
23370;SDS011;11858;51.056;3.712;2023-02-01T07:46:04;32.70;;;6.57;;
23370;SDS011;11858;51.056;3.712;2023-02-01T07:48:31;31.80;;;5.43;;
23370;SDS011;11858;51.056;3.712;2023-02-01T07:53:33;35.45;;;8.13;;
23370;SDS011;11858;51.056;3.712;2023-02-01T07:55:59;31.77;;;6.30;;
23370;SDS011;11858;51.056;3.712;2023-02-01T07:58:26;37.65;;;6.78;;
23370;SDS011;11858;51.056;3.712;2023-02-01T08:00:52;31.58;;;5.88;;
23370;SDS011;11858;51.056;3.712;2023-02-01T08:03:37;30.00;;;6.15;;
23370;SDS011;11858;51.056;3.712;2023-02-01T08:06:03;37.13;;;7.05;;
23370;SDS011;11858;51.056;3.712;2023-02-01T08:08:29;33.28;;;6.28;;
23370;SDS011;11858;51.056;3.712;2023-02-01T08:11:01;34.90;;;5.53;;
23370;SDS011;11858;51.056;3.712;2023-02-01T08:13:29;32.00;;;6.45;;
23370;SDS011;11858;51.056;3.712;2023-02-01T08:15:59;29.70;;;6.15;;
23370;SDS011;11858;51.056;3.712;2023-02-01T08:18:26;28.33;;;5.35;;
23370;SDS011;11858;51.056;3.712;2023-02-01T08:20:52;31.30;;;5.60;;
23370;SDS011;11858;51.056;3.712;2023-02-01T08:23:18;23.95;;;4.88;;
23370;SDS011;11858;51.056;3.712;2023-02-01T08:25:45;31.52;;;5.88;;
23370;SDS011;11858;51.056;3.712;2023-02-01T08:28:11;35.75;;;6.03;;
23370;SDS011;11858;51.056;3.712;2023-02-01T08:30:38;33.72;;;5.28;;
23370;SDS011;11858;51.056;3.712;2023-02-01T08:33:07;28.55;;;5.35;;
23370;SDS011;11858;51.056;3.712;2023-02-01T08:35:37;34.28;;;5.80;;
23370;SDS011;11858;51.056;3.712;2023-02-01T08:38:04;30.05;;;6.05;;
23370;SDS011;11858;51.056;3.712;2023-02-01T08:40:30;33.97;;;5.72;;
23370;SDS011;11858;51.056;3.712;2023-02-01T08:42:56;31.30;;;5.65;;
23370;SDS011;11858;51.056;3.712;2023-02-01T08:45:24;34.65;;;5.80;;
23370;SDS011;11858;51.056;3.712;2023-02-01T08:47:51;37.78;;;7.40;;
23370;SDS011;11858;51.056;3.712;2023-02-01T08:50:17;27.77;;;5.65;;
23370;SDS011;11858;51.056;3.712;2023-02-01T08:52:44;36.15;;;5.80;;
23370;SDS011;11858;51.056;3.712;2023-02-01T08:55:11;27.85;;;5.22;;
23370;SDS011;11858;51.056;3.712;2023-02-01T08:57:37;31.70;;;6.03;;
23370;SDS011;11858;51.056;3.712;2023-02-01T09:00:04;28.65;;;5.38;;
23370;SDS011;11858;51.056;3.712;2023-02-01T09:02:31;37.92;;;5.50;;
23370;SDS011;11858;51.056;3.712;2023-02-01T09:04:57;37.78;;;6.13;;
23370;SDS011;11858;51.056;3.712;2023-02-01T09:07:23;22.33;;;5.70;;
23370;SDS011;11858;51.056;3.712;2023-02-01T09:09:49;33.47;;;5.80;;
23370;SDS011;11858;51.056;3.712;2023-02-01T09:12:15;26.23;;;5.97;;
23370;SDS011;11858;51.056;3.712;2023-02-01T09:14:40;34.53;;;6.57;;
23370;SDS011;11858;51.056;3.712;2023-02-01T09:17:06;19.20;;;5.90;;
23370;SDS011;11858;51.056;3.712;2023-02-01T09:19:32;24.10;;;6.35;;
23370;SDS011;11858;51.056;3.712;2023-02-01T09:21:58;23.17;;;5.18;;
23370;SDS011;11858;51.056;3.712;2023-02-01T09:24:24;23.00;;;5.68;;
23370;SDS011;11858;51.056;3.712;2023-02-01T09:26:50;30.88;;;6.22;;
23370;SDS011;11858;51.056;3.712;2023-02-01T09:29:16;27.30;;;7.68;;
23370;SDS011;11858;51.056;3.712;2023-02-01T09:31:42;27.90;;;6.70;;
23370;SDS011;11858;51.056;3.712;2023-02-01T09:34:08;31.80;;;11.00;;
23370;SDS011;11858;51.056;3.712;2023-02-01T09:36:34;37.78;;;15.50;;
23370;SDS011;11858;51.056;3.712;2023-02-01T09:39:02;30.92;;;11.20;;
23370;SDS011;11858;51.056;3.712;2023-02-01T09:47:18;26.58;;;14.00;;
23370;SDS011;11858;51.056;3.712;2023-02-01T09:52:59;28.52;;;15.88;;
23370;SDS011;11858;51.056;3.712;2023-02-01T09:55:30;32.30;;;18.48;;
23370;SDS011;11858;51.056;3.712;2023-02-01T09:58:14;33.08;;;18.02;;
23370;SDS011;11858;51.056;3.712;2023-02-01T10:00:51;34.95;;;19.50;;
23370;SDS011;11858;51.056;3.712;2023-02-01T10:03:19;35.08;;;19.25;;
23370;SDS011;11858;51.056;3.712;2023-02-01T10:05:57;28.20;;;18.55;;
23370;SDS011;11858;51.056;3.712;2023-02-01T10:08:52;35.67;;;18.77;;
23370;SDS011;11858;51.056;3.712;2023-02-01T10:11:36;37.65;;;18.88;;
23370;SDS011;11858;51.056;3.712;2023-02-01T10:22:01;28.52;;;18.95;;
23370;SDS011;11858;51.056;3.712;2023-02-01T10:24:42;34.67;;;20.10;;
23370;SDS011;11858;51.056;3.712;2023-02-01T10:27:23;35.60;;;18.95;;
23370;SDS011;11858;51.056;3.712;2023-02-01T10:29:58;30.40;;;18.80;;
23370;SDS011;11858;51.056;3.712;2023-02-01T10:32:30;37.33;;;18.92;;
23370;SDS011;11858;51.056;3.712;2023-02-01T10:35:02;34.22;;;19.50;;
23370;SDS011;11858;51.056;3.712;2023-02-01T10:37:40;32.60;;;19.20;;
23370;SDS011;11858;51.056;3.712;2023-02-01T10:40:21;28.10;;;18.80;;
23370;SDS011;11858;51.056;3.712;2023-02-01T10:43:07;29.45;;;18.58;;
23370;SDS011;11858;51.056;3.712;2023-02-01T10:45:34;29.38;;;19.27;;
23370;SDS011;11858;51.056;3.712;2023-02-01T10:48:02;34.72;;;19.30;;
23370;SDS011;11858;51.056;3.712;2023-02-01T10:53:12;32.42;;;19.65;;
23370;SDS011;11858;51.056;3.712;2023-02-01T10:58:21;21.70;;;19.40;;
23370;SDS011;11858;51.056;3.712;2023-02-01T11:00:53;25.55;;;19.77;;
23370;SDS011;11858;51.056;3.712;2023-02-01T11:06:30;26.52;;;19.05;;
23370;SDS011;11858;51.056;3.712;2023-02-01T11:11:31;22.90;;;19.27;;
23370;SDS011;11858;51.056;3.712;2023-02-01T11:14:01;37.17;;;23.15;;
23370;SDS011;11858;51.056;3.712;2023-02-01T11:16:38;24.77;;;19.73;;
23370;SDS011;11858;51.056;3.712;2023-02-01T11:19:04;25.58;;;19.77;;
23370;SDS011;11858;51.056;3.712;2023-02-01T11:21:31;27.45;;;20.42;;
23370;SDS011;11858;51.056;3.712;2023-02-01T11:24:04;25.35;;;19.88;;
23370;SDS011;11858;51.056;3.712;2023-02-01T11:26:34;28.92;;;19.95;;
23370;SDS011;11858;51.056;3.712;2023-02-01T11:29:11;25.00;;;20.27;;
23370;SDS011;11858;51.056;3.712;2023-02-01T11:31:42;28.75;;;21.02;;
23370;SDS011;11858;51.056;3.712;2023-02-01T11:34:20;34.97;;;23.48;;
23370;SDS011;11858;51.056;3.712;2023-02-01T11:36:49;27.85;;;21.60;;
23370;SDS011;11858;51.056;3.712;2023-02-01T11:39:25;27.52;;;22.00;;
23370;SDS011;11858;51.056;3.712;2023-02-01T11:42:05;28.50;;;21.85;;
23370;SDS011;11858;51.056;3.712;2023-02-01T11:44:45;30.15;;;21.17;;
23370;SDS011;11858;51.056;3.712;2023-02-01T11:47:18;30.00;;;23.27;;
23370;SDS011;11858;51.056;3.712;2023-02-01T11:49:45;27.42;;;20.15;;
23370;SDS011;11858;51.056;3.712;2023-02-01T11:52:15;25.20;;;19.75;;
23370;SDS011;11858;51.056;3.712;2023-02-01T12:20:01;27.52;;;20.77;;
23370;SDS011;11858;51.056;3.712;2023-02-01T12:25:11;29.13;;;20.65;;
23370;SDS011;11858;51.056;3.712;2023-02-01T12:36:07;23.73;;;20.00;;
23370;SDS011;11858;51.056;3.712;2023-02-01T12:43:57;25.88;;;21.67;;
23370;SDS011;11858;51.056;3.712;2023-02-01T12:46:45;31.10;;;21.77;;
23370;SDS011;11858;51.056;3.712;2023-02-01T12:49:22;23.10;;;20.75;;
23370;SDS011;11858;51.056;3.712;2023-02-01T12:51:52;31.58;;;22.67;;
23370;SDS011;11858;51.056;3.712;2023-02-01T12:54:29;28.33;;;22.40;;
23370;SDS011;11858;51.056;3.712;2023-02-01T12:57:12;22.50;;;20.13;;
23370;SDS011;11858;51.056;3.712;2023-02-01T13:02:33;23.52;;;21.02;;
23370;SDS011;11858;51.056;3.712;2023-02-01T13:08:25;28.10;;;22.63;;
23370;SDS011;11858;51.056;3.712;2023-02-01T13:11:06;26.95;;;21.23;;
23370;SDS011;11858;51.056;3.712;2023-02-01T13:18:52;29.20;;;21.27;;
23370;SDS011;11858;51.056;3.712;2023-02-01T13:21:25;35.63;;;21.33;;
23370;SDS011;11858;51.056;3.712;2023-02-01T13:23:54;48.72;;;25.63;;
23370;SDS011;11858;51.056;3.712;2023-02-01T13:26:20;26.85;;;20.23;;
23370;SDS011;11858;51.056;3.712;2023-02-01T13:42:33;90.72;;;38.05;;
23370;SDS011;11858;51.056;3.712;2023-02-01T13:45:13;41.13;;;23.38;;
23370;SDS011;11858;51.056;3.712;2023-02-01T13:47:43;30.00;;;22.10;;
23370;SDS011;11858;51.056;3.712;2023-02-01T13:50:24;34.83;;;21.88;;
23370;SDS011;11858;51.056;3.712;2023-02-01T13:55:45;24.63;;;20.27;;
23370;SDS011;11858;51.056;3.712;2023-02-01T13:58:14;30.13;;;22.25;;
23370;SDS011;11858;51.056;3.712;2023-02-01T14:00:45;36.92;;;21.95;;
23370;SDS011;11858;51.056;3.712;2023-02-01T14:03:13;36.35;;;21.75;;
23370;SDS011;11858;51.056;3.712;2023-02-01T14:13:34;39.92;;;24.48;;
23370;SDS011;11858;51.056;3.712;2023-02-01T14:26:23;34.58;;;21.83;;
23370;SDS011;11858;51.056;3.712;2023-02-01T14:28:53;31.42;;;21.85;;
23370;SDS011;11858;51.056;3.712;2023-02-01T14:34:13;35.25;;;20.23;;
23370;SDS011;11858;51.056;3.712;2023-02-01T14:39:29;42.03;;;24.02;;
23370;SDS011;11858;51.056;3.712;2023-02-01T14:42:02;28.98;;;20.88;;
23370;SDS011;11858;51.056;3.712;2023-02-01T14:44:31;30.05;;;21.00;;
23370;SDS011;11858;51.056;3.712;2023-02-01T14:52:49;33.38;;;21.65;;
23370;SDS011;11858;51.056;3.712;2023-02-01T14:55:25;29.83;;;19.55;;
23370;SDS011;11858;51.056;3.712;2023-02-01T14:57:58;33.08;;;18.92;;
23370;SDS011;11858;51.056;3.712;2023-02-01T15:00:28;33.13;;;20.20;;
23370;SDS011;11858;51.056;3.712;2023-02-01T15:05:40;35.25;;;19.75;;
23370;SDS011;11858;51.056;3.712;2023-02-01T15:08:16;26.42;;;18.80;;
23370;SDS011;11858;51.056;3.712;2023-02-01T15:10:47;28.55;;;19.52;;
23370;SDS011;11858;51.056;3.712;2023-02-01T15:13:22;38.22;;;19.35;;
23370;SDS011;11858;51.056;3.712;2023-02-01T15:18:50;31.77;;;18.98;;
23370;SDS011;11858;51.056;3.712;2023-02-01T15:21:31;31.23;;;18.85;;
23370;SDS011;11858;51.056;3.712;2023-02-01T15:24:12;27.52;;;19.17;;
23370;SDS011;11858;51.056;3.712;2023-02-01T15:26:44;27.85;;;19.83;;
23370;SDS011;11858;51.056;3.712;2023-02-01T15:29:11;33.88;;;18.63;;
23370;SDS011;11858;51.056;3.712;2023-02-01T15:31:43;32.67;;;19.05;;
23370;SDS011;11858;51.056;3.712;2023-02-01T15:34:11;33.40;;;18.23;;
23370;SDS011;11858;51.056;3.712;2023-02-01T15:36:38;33.42;;;18.85;;
23370;SDS011;11858;51.056;3.712;2023-02-01T15:39:18;30.13;;;18.98;;
23370;SDS011;11858;51.056;3.712;2023-02-01T15:42:09;34.10;;;18.48;;
23370;SDS011;11858;51.056;3.712;2023-02-01T15:44:40;28.33;;;18.50;;
23370;SDS011;11858;51.056;3.712;2023-02-01T15:49:44;29.50;;;16.80;;
23370;SDS011;11858;51.056;3.712;2023-02-01T15:55:04;27.95;;;16.75;;
23370;SDS011;11858;51.056;3.712;2023-02-01T15:57:35;26.70;;;16.85;;
23370;SDS011;11858;51.056;3.712;2023-02-01T16:00:17;33.25;;;18.10;;
23370;SDS011;11858;51.056;3.712;2023-02-01T16:02:52;30.60;;;16.83;;
23370;SDS011;11858;51.056;3.712;2023-02-01T16:08:00;32.97;;;16.67;;
23370;SDS011;11858;51.056;3.712;2023-02-01T16:10:41;33.10;;;16.48;;
23370;SDS011;11858;51.056;3.712;2023-02-01T16:13:09;32.97;;;17.08;;
23370;SDS011;11858;51.056;3.712;2023-02-01T16:15:35;27.55;;;17.58;;
23370;SDS011;11858;51.056;3.712;2023-02-01T16:18:02;33.00;;;17.20;;
23370;SDS011;11858;51.056;3.712;2023-02-01T16:20:28;30.33;;;16.05;;
23370;SDS011;11858;51.056;3.712;2023-02-01T16:22:55;33.08;;;17.55;;
23370;SDS011;11858;51.056;3.712;2023-02-01T16:25:21;33.63;;;17.45;;
23370;SDS011;11858;51.056;3.712;2023-02-01T16:27:47;30.25;;;16.63;;
23370;SDS011;11858;51.056;3.712;2023-02-01T16:30:13;33.47;;;15.80;;
23370;SDS011;11858;51.056;3.712;2023-02-01T16:32:39;29.13;;;15.35;;
23370;SDS011;11858;51.056;3.712;2023-02-01T16:35:05;36.80;;;14.57;;
23370;SDS011;11858;51.056;3.712;2023-02-01T16:38:08;36.20;;;13.85;;
23370;SDS011;11858;51.056;3.712;2023-02-01T16:40:41;30.42;;;13.43;;
23370;SDS011;11858;51.056;3.712;2023-02-01T16:43:12;34.67;;;12.00;;
23370;SDS011;11858;51.056;3.712;2023-02-01T16:45:43;33.55;;;11.10;;
23370;SDS011;11858;51.056;3.712;2023-02-01T16:48:31;28.13;;;10.80;;
23370;SDS011;11858;51.056;3.712;2023-02-01T16:51:00;26.35;;;10.73;;
23370;SDS011;11858;51.056;3.712;2023-02-01T16:53:29;29.75;;;11.02;;
23370;SDS011;11858;51.056;3.712;2023-02-01T16:55:56;30.20;;;10.98;;
23370;SDS011;11858;51.056;3.712;2023-02-01T16:58:22;36.22;;;11.20;;
23370;SDS011;11858;51.056;3.712;2023-02-01T17:00:49;29.75;;;10.63;;
23370;SDS011;11858;51.056;3.712;2023-02-01T17:03:18;32.85;;;9.52;;
23370;SDS011;11858;51.056;3.712;2023-02-01T17:05:50;40.45;;;10.02;;
23370;SDS011;11858;51.056;3.712;2023-02-01T17:08:19;37.63;;;9.45;;
23370;SDS011;11858;51.056;3.712;2023-02-01T17:10:56;28.30;;;9.15;;
23370;SDS011;11858;51.056;3.712;2023-02-01T17:13:22;28.45;;;9.05;;
23370;SDS011;11858;51.056;3.712;2023-02-01T17:15:56;32.50;;;8.32;;
23370;SDS011;11858;51.056;3.712;2023-02-01T17:18:24;28.23;;;6.78;;
23370;SDS011;11858;51.056;3.712;2023-02-01T17:20:56;28.58;;;6.80;;
23370;SDS011;11858;51.056;3.712;2023-02-01T17:23:22;29.35;;;6.60;;
23370;SDS011;11858;51.056;3.712;2023-02-01T17:25:48;28.88;;;6.55;;
23370;SDS011;11858;51.056;3.712;2023-02-01T17:28:14;26.80;;;6.90;;
23370;SDS011;11858;51.056;3.712;2023-02-01T17:30:40;26.30;;;6.57;;
23370;SDS011;11858;51.056;3.712;2023-02-01T17:33:12;40.60;;;9.73;;
23370;SDS011;11858;51.056;3.712;2023-02-01T17:36:03;26.30;;;6.60;;
23370;SDS011;11858;51.056;3.712;2023-02-01T17:38:30;28.73;;;6.65;;
23370;SDS011;11858;51.056;3.712;2023-02-01T17:40:56;28.05;;;6.85;;
23370;SDS011;11858;51.056;3.712;2023-02-01T17:43:23;30.38;;;6.65;;
23370;SDS011;11858;51.056;3.712;2023-02-01T17:48:50;31.05;;;6.20;;
23370;SDS011;11858;51.056;3.712;2023-02-01T17:51:18;33.90;;;6.80;;